Time;durP1;ratioP1;P1;durP2;ratioP2;P2;SDS_P1;SDS_P2;PMS_P1;PMS_P2;Temp;Humidity;BMP_temperature;BMP_pressure;BME280_temperature;BME280_humidity;BME280_pressure;Samples;Min_cycle;Max_cycle;Signal;HPM_P1;HPM_P2
2022/12/14 00:01:43;;;;;;;40.20;17.25;;;-6.20;99.90;;;;;;4160593;28;20045;-60
2022/12/14 00:03:45;;;;;;;38.78;18.48;;;-6.20;99.90;;;;;;4160591;28;20037;-61
2022/12/14 00:05:46;;;;;;;42.83;18.02;;;-6.30;99.90;;;;;;4161370;28;20033;-59
2022/12/14 00:07:48;;;;;;;40.53;16.70;;;-6.30;99.90;;;;;;4160046;28;20083;-61
2022/12/14 00:09:49;;;;;;;39.92;17.85;;;-6.30;99.90;;;;;;4161028;28;20025;-60
2022/12/14 00:11:50;;;;;;;39.40;16.77;;;-6.30;99.90;;;;;;4160515;28;20099;-61
2022/12/14 00:13:59;;;;;;;41.35;17.60;;;-6.30;99.90;;;;;;4160657;28;20037;-61
2022/12/14 00:16:12;;;;;;;41.13;16.73;;;-6.30;99.90;;;;;;4159921;28;20079;-62
2022/12/14 00:18:14;;;;;;;41.85;18.23;;;-6.30;99.90;;;;;;4161659;28;20042;-62
2022/12/14 00:20:15;;;;;;;35.05;15.82;;;-6.30;99.90;;;;;;4149774;28;20068;-61
2022/12/14 00:22:16;;;;;;;37.70;16.25;;;-6.20;99.90;;;;;;4144976;28;20042;-63
2022/12/14 00:24:17;;;;;;;48.47;17.42;;;-6.20;99.90;;;;;;4144161;28;20081;-61
2022/12/14 00:26:24;;;;;;;37.42;17.80;;;-6.20;99.90;;;;;;4144809;28;20482;-62
2022/12/14 00:28:25;;;;;;;41.67;17.40;;;-6.20;99.90;;;;;;4143969;28;20627;-61
2022/12/14 00:30:26;;;;;;;44.13;18.42;;;-6.20;99.90;;;;;;4145315;28;20088;-61
2022/12/14 00:32:27;;;;;;;41.70;17.60;;;-6.20;99.90;;;;;;4154375;28;20513;-61
2022/12/14 00:34:28;;;;;;;38.63;17.48;;;-6.30;99.90;;;;;;4160858;28;20033;-61
2022/12/14 00:36:30;;;;;;;36.22;15.98;;;-6.30;99.90;;;;;;4160251;28;20477;-60
2022/12/14 00:38:31;;;;;;;37.22;16.65;;;-6.30;99.90;;;;;;4160296;28;20034;-61
2022/12/14 00:40:32;;;;;;;34.22;15.32;;;-6.30;99.90;;;;;;4147330;28;20583;-61
2022/12/14 00:42:34;;;;;;;35.60;15.40;;;-6.30;99.90;;;;;;4144826;28;20072;-61
2022/12/14 00:44:35;;;;;;;37.20;16.17;;;-6.30;99.90;;;;;;4144724;28;20080;-60
2022/12/14 00:46:36;;;;;;;38.25;16.55;;;-6.30;99.90;;;;;;4155855;28;20088;-61
2022/12/14 00:48:37;;;;;;;38.10;17.25;;;-6.30;99.90;;;;;;4160587;28;20084;-59
2022/12/14 00:50:38;;;;;;;35.28;16.40;;;-6.40;99.90;;;;;;4160073;28;20080;-61
2022/12/14 00:52:39;;;;;;;32.55;14.55;;;-6.40;99.90;;;;;;4161315;28;20033;-60
2022/12/14 00:54:41;;;;;;;39.42;16.58;;;-6.40;99.90;;;;;;4159393;28;20042;-61
2022/12/14 00:56:42;;;;;;;39.70;16.67;;;-6.40;99.90;;;;;;4160846;28;20033;-60
2022/12/14 00:58:48;;;;;;;41.70;16.50;;;-6.40;99.90;;;;;;4147560;28;20026;-60
2022/12/14 01:01:04;;;;;;;36.13;16.23;;;-6.40;99.90;;;;;;4146642;28;20456;-59
2022/12/14 01:03:07;;;;;;;36.33;15.27;;;-6.40;99.90;;;;;;4145081;28;20042;-60
2022/12/14 01:05:08;;;;;;;31.95;15.70;;;-6.40;99.90;;;;;;4144345;28;20100;-59
2022/12/14 01:07:09;;;;;;;39.08;17.48;;;-6.40;99.90;;;;;;4157808;28;20087;-61
2022/12/14 01:09:11;;;;;;;43.05;18.08;;;-6.40;99.90;;;;;;4160894;28;20119;-61
2022/12/14 01:11:13;;;;;;;38.58;16.88;;;-6.40;99.90;;;;;;4162239;28;20034;-62
2022/12/14 01:13:14;;;;;;;40.25;16.70;;;-6.50;99.90;;;;;;4147003;28;20222;-62
2022/12/14 01:15:15;;;;;;;41.45;17.80;;;-6.50;99.90;;;;;;4156677;28;20029;-62
2022/12/14 01:17:16;;;;;;;45.30;18.73;;;-6.50;99.90;;;;;;4154993;28;20088;-63
2022/12/14 01:19:18;;;;;;;37.67;18.48;;;-6.50;99.90;;;;;;4147079;28;20048;-61
2022/12/14 01:21:21;;;;;;;42.53;17.23;;;-6.50;99.90;;;;;;4146484;28;20034;-61
2022/12/14 01:23:22;;;;;;;38.63;16.55;;;-6.60;99.90;;;;;;4147119;28;20038;-62
2022/12/14 01:25:24;;;;;;;42.72;17.73;;;-6.60;99.90;;;;;;4151376;28;20071;-61
2022/12/14 01:27:25;;;;;;;34.83;16.05;;;-6.60;99.90;;;;;;4163831;28;20045;-61
2022/12/14 01:29:26;;;;;;;35.67;16.23;;;-6.60;99.90;;;;;;4162460;28;20033;-61
2022/12/14 01:31:32;;;;;;;38.58;18.20;;;-6.60;99.90;;;;;;4164175;28;20371;-59
2022/12/14 01:33:33;;;;;;;39.72;17.80;;;-6.60;99.90;;;;;;4162614;28;20017;-61
2022/12/14 01:35:34;;;;;;;39.35;17.05;;;-6.60;99.90;;;;;;4147535;28;20088;-61
2022/12/14 01:37:35;;;;;;;39.03;17.27;;;-6.60;99.90;;;;;;4145958;28;20096;-61
2022/12/14 01:39:36;;;;;;;35.67;16.13;;;-6.60;99.90;;;;;;4147157;28;20038;-62
2022/12/14 01:41:51;;;;;;;38.95;17.92;;;-6.50;99.90;;;;;;4146328;28;20061;-62
2022/12/14 01:43:56;;;;;;;35.53;16.15;;;-6.50;99.90;;;;;;4148483;28;20037;-62
2022/12/14 01:45:58;;;;;;;36.22;15.13;;;-6.50;99.90;;;;;;4159383;28;20045;-62
2022/12/14 01:48:02;;;;;;;33.78;14.70;;;-6.50;99.90;;;;;;4161954;28;20428;-63
2022/12/14 01:50:07;;;;;;;37.67;16.48;;;-6.50;99.90;;;;;;4162491;28;20067;-61
2022/12/14 01:52:24;;;;;;;39.20;17.67;;;-6.50;99.90;;;;;;4163618;28;20052;-61
2022/12/14 01:54:28;;;;;;;39.80;16.23;;;-6.50;99.90;;;;;;4160875;28;20041;-62
2022/12/14 01:56:30;;;;;;;34.35;15.82;;;-6.40;99.90;;;;;;4163482;28;20029;-61
2022/12/14 01:58:32;;;;;;;33.80;16.33;;;-6.40;99.90;;;;;;4162543;28;20037;-63
2022/12/14 02:00:33;;;;;;;35.33;16.30;;;-6.30;99.90;;;;;;4148027;28;20544;-62
2022/12/14 02:02:37;;;;;;;31.05;14.40;;;-6.40;99.90;;;;;;4146208;28;20100;-61
2022/12/14 02:04:43;;;;;;;33.03;15.20;;;-6.40;99.90;;;;;;4152631;28;20037;-61
2022/12/14 02:06:48;;;;;;;34.63;14.32;;;-6.40;99.90;;;;;;4147538;28;20081;-61
2022/12/14 02:08:51;;;;;;;34.33;16.08;;;-6.40;99.90;;;;;;4143800;28;20034;-61
2022/12/14 02:10:54;;;;;;;37.28;15.52;;;-6.50;99.90;;;;;;4146800;28;20091;-62
2022/12/14 02:13:16;;;;;;;38.65;15.18;;;-6.50;99.90;;;;;;4149822;28;20528;-61
2022/12/14 02:15:18;;;;;;;35.63;15.60;;;-6.50;99.90;;;;;;4162860;28;20025;-60
2022/12/14 02:17:19;;;;;;;31.50;15.00;;;-6.50;99.90;;;;;;4162561;28;20029;-62
2022/12/14 02:19:21;;;;;;;33.95;15.27;;;-6.50;99.90;;;;;;4162638;28;20030;-61
2022/12/14 02:21:35;;;;;;;36.58;15.27;;;-6.60;99.90;;;;;;4162236;28;20088;-61
2022/12/14 02:23:42;;;;;;;33.67;14.50;;;-6.50;99.90;;;;;;4163119;28;20800;-61
2022/12/14 02:26:09;;;;;;;34.65;15.18;;;-6.60;99.90;;;;;;4161578;28;20107;-61
2022/12/14 02:28:13;;;;;;;40.28;15.55;;;-6.60;99.90;;;;;;4131050;28;20486;-61
2022/12/14 02:30:18;;;;;;;32.60;14.70;;;-6.60;99.90;;;;;;4161501;28;20098;-61
2022/12/14 02:32:26;;;;;;;35.53;14.75;;;-6.70;99.90;;;;;;4163222;28;20056;-59
2022/12/14 02:34:35;;;;;;;30.80;14.73;;;-6.70;99.90;;;;;;4161950;28;20049;-61
2022/12/14 02:36:43;;;;;;;34.30;14.52;;;-6.70;99.90;;;;;;4158228;28;20034;-61
2022/12/14 02:38:59;;;;;;;33.10;15.07;;;-6.70;99.90;;;;;;4155587;28;20080;-61
2022/12/14 02:41:06;;;;;;;32.80;14.88;;;-6.70;99.90;;;;;;4162763;28;20038;-61
2022/12/14 02:43:16;;;;;;;37.05;15.45;;;-6.60;99.90;;;;;;4159946;28;20037;-60
2022/12/14 02:45:39;;;;;;;35.40;14.32;;;-6.60;99.90;;;;;;4162868;28;20025;-61
2022/12/14 02:47:53;;;;;;;29.40;14.68;;;-6.60;99.90;;;;;;4161947;28;20045;-60
2022/12/14 02:50:05;;;;;;;32.42;14.23;;;-6.60;99.90;;;;;;4147130;28;20045;-60
2022/12/14 02:52:13;;;;;;;35.83;14.65;;;-6.60;99.90;;;;;;4145319;28;20034;-60
2022/12/14 02:54:53;;;;;;;31.67;13.85;;;-6.60;99.90;;;;;;4145679;28;20030;-60
2022/12/14 02:57:02;;;;;;;37.13;15.18;;;-6.60;99.90;;;;;;4145392;28;20100;-61
2022/12/14 02:59:07;;;;;;;31.98;14.88;;;-6.50;99.90;;;;;;4145743;28;20084;-60
2022/12/14 03:01:14;;;;;;;30.52;13.45;;;-6.50;99.90;;;;;;4150360;28;20096;-61
2022/12/14 03:03:15;;;;;;;33.70;15.05;;;-6.50;99.90;;;;;;4161682;28;20087;-59
2022/12/14 03:05:17;;;;;;;27.83;13.75;;;-6.50;99.90;;;;;;4159499;28;20093;-60
2022/12/14 03:07:37;;;;;;;28.27;13.38;;;-6.50;99.90;;;;;;4146898;28;20072;-58
2022/12/14 03:09:39;;;;;;;25.17;12.73;;;-6.40;99.90;;;;;;4152713;28;20029;-58
2022/12/14 03:11:50;;;;;;;28.17;13.50;;;-6.40;99.90;;;;;;4161710;28;20482;-60
2022/12/14 03:14:00;;;;;;;28.70;13.07;;;-6.40;99.90;;;;;;4160725;28;20175;-62
2022/12/14 03:16:12;;;;;;;30.23;13.70;;;-6.30;99.90;;;;;;4160971;28;20038;-60
2022/12/14 03:18:18;;;;;;;29.35;13.18;;;-6.30;99.90;;;;;;4158753;28;20091;-60
2022/12/14 03:20:23;;;;;;;29.65;13.60;;;-6.20;99.90;;;;;;4144749;28;20112;-61
2022/12/14 03:22:53;;;;;;;30.88;13.50;;;-6.20;99.90;;;;;;4144946;28;20866;-60
2022/12/14 03:24:59;;;;;;;31.80;14.18;;;-6.20;99.90;;;;;;4139310;28;20087;-61
2022/12/14 03:27:11;;;;;;;30.27;14.32;;;-6.20;99.90;;;;;;4150752;28;20408;-61
2022/12/14 03:29:21;;;;;;;33.00;12.32;;;-6.10;99.90;;;;;;4149657;28;20057;-61
2022/12/14 03:31:48;;;;;;;30.73;13.95;;;-6.10;99.90;;;;;;4144477;28;20080;-60
2022/12/14 03:33:53;;;;;;;29.98;14.05;;;-6.10;99.90;;;;;;4144244;28;20022;-61
2022/12/14 03:36:02;;;;;;;22.15;11.68;;;-6.10;99.90;;;;;;4145369;28;20022;-61
2022/12/14 03:38:20;;;;;;;27.35;11.13;;;-6.10;99.90;;;;;;4145003;28;20030;-61
2022/12/14 03:40:36;;;;;;;29.58;13.32;;;-6.10;99.90;;;;;;4144833;28;20053;-61
2022/12/14 03:42:40;;;;;;;34.20;14.10;;;-6.10;99.90;;;;;;4155351;28;20033;-61
2022/12/14 03:45:07;;;;;;;31.52;14.65;;;-6.10;99.90;;;;;;4161331;28;20080;-61
2022/12/14 03:47:27;;;;;;;29.75;14.00;;;-6.10;99.90;;;;;;4151934;28;20092;-61
2022/12/14 03:49:49;;;;;;;33.20;13.82;;;-6.10;99.90;;;;;;4129755;28;20042;-62
2022/12/14 03:52:07;;;;;;;32.13;15.20;;;-6.20;99.90;;;;;;4128160;28;20030;-62
2022/12/14 03:54:25;;;;;;;33.60;15.25;;;-6.20;99.90;;;;;;4129132;28;20026;-61
2022/12/14 03:56:53;;;;;;;27.30;13.75;;;-6.20;99.90;;;;;;4143007;28;20033;-61
2022/12/14 03:59:12;;;;;;;30.45;14.52;;;-6.20;99.90;;;;;;4151973;28;20038;-61
2022/12/14 04:01:44;;;;;;;36.78;15.18;;;-6.10;99.90;;;;;;4160303;28;20077;-61
2022/12/14 04:03:54;;;;;;;31.38;14.77;;;-6.20;99.90;;;;;;4158664;28;20030;-61
2022/12/14 04:06:04;;;;;;;34.30;15.27;;;-6.20;99.90;;;;;;4144833;28;20057;-62
2022/12/14 04:08:08;;;;;;;34.80;15.82;;;-6.20;99.90;;;;;;4147083;28;20041;-62
2022/12/14 04:20:00;;;;;;;35.70;14.95;;;-6.20;99.90;;;;;;4161495;28;20480;-61
2022/12/14 04:22:10;;;;;;;35.70;14.93;;;-6.30;99.90;;;;;;4159703;28;20088;-63
2022/12/14 04:26:44;;;;;;;40.42;15.95;;;-6.30;99.90;;;;;;4159968;28;20437;-64
2022/12/14 04:31:27;;;;;;;33.50;15.52;;;-6.30;99.90;;;;;;4159795;28;20091;-61
2022/12/14 04:33:48;;;;;;;33.47;15.13;;;-6.30;99.90;;;;;;4160892;28;20390;-64
2022/12/14 04:35:50;;;;;;;35.92;15.85;;;-6.20;99.90;;;;;;4148183;28;20030;-61
2022/12/14 04:37:59;;;;;;;33.03;15.55;;;-6.30;99.90;;;;;;4145105;28;20025;-62
2022/12/14 04:40:06;;;;;;;39.08;17.30;;;-6.20;99.90;;;;;;4142980;28;20489;-62
2022/12/14 04:42:10;;;;;;;35.83;15.73;;;-6.20;99.90;;;;;;4146221;28;20045;-67
2022/12/14 04:44:28;;;;;;;36.55;16.15;;;-6.20;99.90;;;;;;4147162;28;20409;-64
2022/12/14 04:46:33;;;;;;;29.50;14.52;;;-6.20;99.90;;;;;;4151910;28;20022;-62
2022/12/14 04:48:40;;;;;;;35.22;16.63;;;-6.20;99.90;;;;;;4153577;28;20029;-62
2022/12/14 04:50:46;;;;;;;35.47;15.00;;;-6.10;99.90;;;;;;4147241;28;20104;-61
2022/12/14 04:52:56;;;;;;;35.55;16.35;;;-6.20;99.90;;;;;;4146717;28;20088;-61
2022/12/14 04:55:22;;;;;;;39.05;15.65;;;-6.20;99.90;;;;;;4147946;28;20548;-62
2022/12/14 04:57:48;;;;;;;45.90;16.23;;;-6.20;99.90;;;;;;4146846;28;20088;-62
2022/12/14 04:59:50;;;;;;;31.98;14.45;;;-6.20;99.90;;;;;;4149044;28;20104;-62
2022/12/14 05:02:13;;;;;;;37.05;16.10;;;-6.30;99.90;;;;;;4154845;28;20996;-62
2022/12/14 05:04:14;;;;;;;33.40;15.63;;;-6.30;99.90;;;;;;4147129;28;20061;-62
2022/12/14 05:06:41;;;;;;;32.97;14.98;;;-6.40;99.90;;;;;;4146637;28;20025;-62
2022/12/14 05:09:01;;;;;;;35.42;15.23;;;-6.40;99.90;;;;;;4137327;28;20088;-64
2022/12/14 05:11:28;;;;;;;28.00;14.35;;;-6.40;99.90;;;;;;4147393;28;20084;-68
2022/12/14 05:13:39;;;;;;;37.40;15.98;;;-6.40;99.90;;;;;;4144607;28;20041;-63
2022/12/14 05:15:48;;;;;;;33.88;14.68;;;-6.40;99.90;;;;;;4144097;28;20092;-63
2022/12/14 05:17:50;;;;;;;37.97;17.65;;;-6.40;99.90;;;;;;4145518;28;20045;-59
2022/12/14 05:19:53;;;;;;;30.40;12.90;;;-6.50;99.90;;;;;;4147551;28;20042;-64
2022/12/14 05:21:54;;;;;;;37.15;14.23;;;-6.50;99.90;;;;;;4148948;28;20095;-62
2022/12/14 05:23:59;;;;;;;32.17;14.63;;;-6.50;99.90;;;;;;4150402;28;20045;-62
2022/12/14 05:26:00;;;;;;;34.33;14.93;;;-6.50;99.90;;;;;;4147281;28;20034;-59
2022/12/14 05:28:01;;;;;;;39.20;16.88;;;-6.50;99.90;;;;;;4145748;28;20560;-61
2022/12/14 05:30:04;;;;;;;36.58;15.93;;;-6.50;99.90;;;;;;4146231;28;20038;-63
2022/12/14 05:32:05;;;;;;;33.17;15.10;;;-6.50;99.90;;;;;;4145503;28;20447;-60
2022/12/14 05:34:06;;;;;;;33.25;15.18;;;-6.50;99.90;;;;;;4148238;28;20116;-58
2022/12/14 05:36:08;;;;;;;35.40;15.20;;;-6.50;99.90;;;;;;4154172;28;20033;-60
2022/12/14 05:38:10;;;;;;;44.55;16.48;;;-6.50;99.90;;;;;;4163328;28;20029;-58
2022/12/14 05:40:11;;;;;;;36.05;16.50;;;-6.50;99.90;;;;;;4137948;28;20042;-59
2022/12/14 05:42:12;;;;;;;34.92;16.55;;;-6.50;99.90;;;;;;4151723;28;20370;-61
2022/12/14 05:44:14;;;;;;;35.33;15.93;;;-6.50;99.90;;;;;;4146421;28;20112;-61
2022/12/14 05:46:15;;;;;;;33.88;14.93;;;-6.50;99.90;;;;;;4146137;28;20045;-61
2022/12/14 05:48:16;;;;;;;32.28;15.73;;;-6.50;99.90;;;;;;4150157;28;20042;-62
2022/12/14 05:50:17;;;;;;;38.20;15.82;;;-6.50;99.90;;;;;;4158922;28;20083;-62
2022/12/14 05:52:19;;;;;;;40.20;17.73;;;-6.50;99.90;;;;;;4157181;28;20033;-61
2022/12/14 05:54:20;;;;;;;41.78;16.25;;;-6.50;99.90;;;;;;4160247;28;20038;-61
2022/12/14 05:56:21;;;;;;;36.58;16.35;;;-6.50;99.90;;;;;;4161615;28;20432;-59
2022/12/14 05:58:22;;;;;;;40.95;14.20;;;-6.50;99.90;;;;;;4158692;28;20122;-61
2022/12/14 06:00:23;;;;;;;38.05;16.88;;;-6.40;99.90;;;;;;4148337;28;20033;-60
2022/12/14 06:02:24;;;;;;;38.70;16.67;;;-6.40;99.90;;;;;;4149041;28;20108;-61
2022/12/14 06:04:26;;;;;;;33.97;15.45;;;-6.40;99.90;;;;;;4155928;28;20045;-61
2022/12/14 06:06:27;;;;;;;34.67;15.50;;;-6.40;99.90;;;;;;4154984;28;20042;-62
2022/12/14 06:08:36;;;;;;;32.13;15.55;;;-6.40;99.90;;;;;;4145930;28;20061;-60
2022/12/14 06:10:37;;;;;;;33.40;14.50;;;-6.30;99.90;;;;;;4145103;28;20076;-63
2022/12/14 06:12:38;;;;;;;35.78;16.48;;;-6.40;99.90;;;;;;4146671;28;20033;-62
2022/12/14 06:14:39;;;;;;;36.05;14.73;;;-6.30;99.90;;;;;;4145568;28;20092;-60
2022/12/14 06:16:42;;;;;;;34.53;15.55;;;-6.20;99.90;;;;;;4146333;28;20045;-56
2022/12/14 06:18:45;;;;;;;33.97;15.85;;;-6.10;99.90;;;;;;4145929;28;20029;-58
2022/12/14 06:20:46;;;;;;;36.42;17.48;;;-6.00;99.90;;;;;;4146744;28;20034;-58
2022/12/14 06:22:47;;;;;;;35.88;16.00;;;-5.90;99.90;;;;;;4145001;28;20034;-59
2022/12/14 06:24:48;;;;;;;34.47;15.10;;;-5.80;99.90;;;;;;4144960;28;20037;-60
2022/12/14 06:26:50;;;;;;;35.55;17.20;;;-5.70;99.90;;;;;;4134422;28;20464;-62
2022/12/14 06:28:51;;;;;;;41.08;16.13;;;-5.70;99.90;;;;;;4128697;28;20039;-62
2022/12/14 06:30:52;;;;;;;38.17;16.52;;;-5.80;99.90;;;;;;4129733;28;20085;-61
2022/12/14 06:32:53;;;;;;;30.88;15.95;;;-5.80;99.90;;;;;;4129609;28;20080;-62
2022/12/14 06:34:55;;;;;;;34.67;16.08;;;-5.90;99.90;;;;;;4130160;28;20181;-60
2022/12/14 06:36:56;;;;;;;34.42;15.32;;;-5.90;99.90;;;;;;4145564;28;20508;-61
2022/12/14 06:39:01;;;;;;;33.55;15.68;;;-6.00;99.90;;;;;;4152686;28;20042;-62
2022/12/14 06:41:07;;;;;;;38.95;15.88;;;-6.00;99.90;;;;;;4150769;28;20570;-59
2022/12/14 06:43:08;;;;;;;33.90;14.95;;;-6.00;99.90;;;;;;4149264;28;20030;-58
2022/12/14 06:45:10;;;;;;;32.92;15.32;;;-6.00;99.90;;;;;;4143537;28;20049;-58
2022/12/14 06:47:11;;;;;;;42.90;16.55;;;-6.00;99.90;;;;;;4158283;28;20067;-63
2022/12/14 06:49:15;;;;;;;29.35;14.85;;;-6.00;99.90;;;;;;4152414;28;20037;-64
2022/12/14 06:51:16;;;;;;;36.65;16.35;;;-5.90;99.90;;;;;;4149987;28;20069;-62
2022/12/14 06:53:17;;;;;;;38.72;16.10;;;-5.90;99.90;;;;;;4156025;28;20041;-63
2022/12/14 06:55:18;;;;;;;33.33;15.40;;;-5.80;99.90;;;;;;4154678;28;20049;-63
2022/12/14 06:57:19;;;;;;;39.05;17.10;;;-5.80;99.90;;;;;;4159265;28;20555;-61
2022/12/14 06:59:21;;;;;;;32.67;16.48;;;-5.70;99.90;;;;;;4145211;28;20452;-61
2022/12/14 07:01:23;;;;;;;33.25;14.40;;;-5.70;99.90;;;;;;4145927;28;20049;-63
2022/12/14 07:03:24;;;;;;;34.25;15.02;;;-5.60;99.90;;;;;;4145383;28;20030;-59
2022/12/14 07:05:26;;;;;;;38.47;16.58;;;-5.60;99.90;;;;;;4154507;28;20042;-61
2022/12/14 07:07:27;;;;;;;36.70;17.05;;;-5.50;99.90;;;;;;4151375;28;20102;-61
2022/12/14 07:09:28;;;;;;;36.25;16.52;;;-5.50;99.90;;;;;;4154810;28;20033;-61
2022/12/14 07:11:29;;;;;;;34.67;16.30;;;-5.40;99.90;;;;;;4147852;28;20092;-61
2022/12/14 07:13:31;;;;;;;45.00;17.65;;;-5.40;99.90;;;;;;4146686;28;20095;-60
2022/12/14 07:15:32;;;;;;;42.05;17.02;;;-5.40;99.90;;;;;;4146535;28;20037;-61
2022/12/14 07:17:36;;;;;;;35.90;16.10;;;-5.40;99.90;;;;;;4155132;28;20045;-60
2022/12/14 07:19:37;;;;;;;39.15;16.50;;;-5.30;99.90;;;;;;4144567;28;20026;-58
2022/12/14 07:21:38;;;;;;;37.58;13.98;;;-5.20;99.90;;;;;;4145226;28;20089;-62
2022/12/14 07:23:41;;;;;;;35.28;14.60;;;-5.20;99.90;;;;;;4153282;28;20425;-61
2022/12/14 07:25:42;;;;;;;34.40;15.32;;;-5.30;99.90;;;;;;4149295;28;20030;-62
2022/12/14 07:27:43;;;;;;;31.17;14.77;;;-5.20;99.90;;;;;;4144622;28;20038;-60
2022/12/14 07:29:44;;;;;;;30.92;13.57;;;-5.20;99.90;;;;;;4145486;28;20029;-58
2022/12/14 07:31:45;;;;;;;35.47;15.65;;;-5.20;99.90;;;;;;4144233;28;20026;-59
2022/12/14 07:33:47;;;;;;;21.60;10.73;;;-5.20;99.90;;;;;;4145269;28;20038;-66
2022/12/14 07:35:49;;;;;;;33.50;13.75;;;-5.10;99.90;;;;;;4149573;28;20026;-62
2022/12/14 07:37:50;;;;;;;31.65;13.30;;;-5.10;99.90;;;;;;4161167;28;20420;-63
2022/12/14 07:39:51;;;;;;;34.80;15.50;;;-5.10;99.90;;;;;;4156526;28;20037;-55
2022/12/14 07:41:53;;;;;;;31.80;14.68;;;-5.00;99.90;;;;;;4143271;28;20108;-55
2022/12/14 07:43:56;;;;;;;31.45;14.38;;;-4.90;99.90;;;;;;4145343;28;20034;-61
2022/12/14 07:46:01;;;;;;;34.05;15.65;;;-4.90;99.90;;;;;;4143467;28;20042;-60
2022/12/14 07:48:05;;;;;;;33.25;15.70;;;-4.90;99.90;;;;;;4145078;28;20049;-65
2022/12/14 07:50:07;;;;;;;30.75;14.38;;;-4.80;99.90;;;;;;4147096;28;20555;-67
2022/12/14 07:52:08;;;;;;;38.15;15.48;;;-4.70;99.90;;;;;;4152070;28;20062;-61
2022/12/14 07:54:11;;;;;;;29.45;13.32;;;-4.60;99.90;;;;;;4144093;28;20308;-65
2022/12/14 07:56:17;;;;;;;32.33;13.15;;;-4.30;99.90;;;;;;4148666;28;20049;-63
2022/12/14 07:58:18;;;;;;;29.50;14.13;;;-4.10;99.90;;;;;;4160425;28;20030;-61
2022/12/14 08:00:20;;;;;;;35.53;13.85;;;-3.80;99.90;;;;;;4155948;28;20033;-62
2022/12/14 08:02:21;;;;;;;25.58;12.45;;;-3.60;99.90;;;;;;4142418;28;20096;-63
2022/12/14 08:04:22;;;;;;;28.15;12.82;;;-3.50;99.90;;;;;;4155361;28;20065;-62
2022/12/14 08:06:25;;;;;;;28.63;13.02;;;-3.30;99.90;;;;;;4160613;28;20099;-61
2022/12/14 08:08:26;;;;;;;28.85;13.07;;;-3.30;99.90;;;;;;4132403;28;20030;-63
2022/12/14 08:10:27;;;;;;;28.05;12.93;;;-3.20;99.90;;;;;;4127780;28;20435;-61
2022/12/14 08:12:29;;;;;;;25.73;13.43;;;-3.20;99.90;;;;;;4128509;28;20038;-62
2022/12/14 08:14:30;;;;;;;35.97;13.53;;;-3.10;99.90;;;;;;4142628;28;20096;-63
2022/12/14 08:16:31;;;;;;;24.53;11.50;;;-3.10;99.90;;;;;;4147892;28;20275;-64
2022/12/14 08:18:33;;;;;;;24.70;11.73;;;-3.10;99.90;;;;;;4148413;28;20271;-60
2022/12/14 08:20:34;;;;;;;21.00;10.83;;;-3.10;99.90;;;;;;4143744;28;20263;-64
2022/12/14 08:22:35;;;;;;;21.60;11.03;;;-3.10;99.90;;;;;;4145263;28;20702;-62
2022/12/14 08:24:37;;;;;;;21.83;11.77;;;-3.10;99.90;;;;;;4150959;28;20297;-62
2022/12/14 08:26:38;;;;;;;24.80;11.03;;;-3.20;99.90;;;;;;4155406;28;20817;-63
2022/12/14 08:28:40;;;;;;;21.53;10.93;;;-3.20;99.90;;;;;;4143693;28;20285;-64
2022/12/14 08:30:41;;;;;;;22.63;10.80;;;-3.20;99.90;;;;;;4144797;28;20711;-70
2022/12/14 08:32:42;;;;;;;25.07;10.93;;;-3.20;99.90;;;;;;4144345;28;20267;-60
2022/12/14 08:34:44;;;;;;;20.70;11.23;;;-3.10;99.90;;;;;;4145240;28;20275;-61
2022/12/14 08:36:45;;;;;;;28.03;11.57;;;-3.10;99.90;;;;;;4143572;28;20271;-61
2022/12/14 08:38:57;;;;;;;23.43;10.80;;;-2.90;99.90;;;;;;4143400;28;20707;-62
2022/12/14 08:41:03;;;;;;;21.17;9.67;;;-2.70;99.90;;;;;;4143241;28;20770;-62
2022/12/14 08:43:05;;;;;;;23.90;10.67;;;-2.70;99.90;;;;;;4144305;28;20597;-61
2022/12/14 08:45:07;;;;;;;24.98;12.00;;;-2.60;99.90;;;;;;4160319;28;20262;-63
2022/12/14 08:47:08;;;;;;;25.92;10.20;;;-2.70;99.90;;;;;;4160536;28;20026;-65
2022/12/14 08:49:11;;;;;;;23.07;11.07;;;-2.70;99.90;;;;;;4160703;28;20096;-61
2022/12/14 08:51:12;;;;;;;19.43;8.90;;;-2.70;99.90;;;;;;4159875;28;20388;-62
2022/12/14 08:53:13;;;;;;;15.30;7.17;;;-2.60;99.90;;;;;;4159264;28;20259;-63
2022/12/14 08:55:15;;;;;;;19.83;9.90;;;-2.40;99.90;;;;;;4142374;28;20747;-63
2022/12/14 08:57:16;;;;;;;19.37;9.73;;;-2.30;99.90;;;;;;4144630;28;20263;-61
2022/12/14 08:59:17;;;;;;;21.10;10.27;;;-2.20;99.90;;;;;;4143878;28;20271;-59
2022/12/14 09:01:27;;;;;;;19.47;8.97;;;-2.30;99.90;;;;;;4161123;28;20286;-58
2022/12/14 09:03:28;;;;;;;17.55;8.63;;;-2.30;99.90;;;;;;4147827;28;20814;-60
2022/12/14 09:05:30;;;;;;;14.87;7.73;;;-2.20;99.90;;;;;;4144874;28;20441;-61
2022/12/14 09:07:31;;;;;;;19.90;8.33;;;-2.30;99.90;;;;;;4149607;28;20275;-61
2022/12/14 09:09:34;;;;;;;18.70;8.87;;;-2.30;99.90;;;;;;4159513;28;20279;-62
2022/12/14 09:11:35;;;;;;;21.17;7.83;;;-2.30;99.90;;;;;;4159025;28;20267;-65
2022/12/14 09:13:36;;;;;;;17.73;8.18;;;-2.50;99.90;;;;;;4147489;28;20283;-62
2022/12/14 09:15:37;;;;;;;14.30;7.93;;;-2.50;99.90;;;;;;4144592;28;20433;-59
2022/12/14 09:17:38;;;;;;;17.27;7.97;;;-2.60;99.90;;;;;;4144356;28;20260;-61
2022/12/14 09:19:39;;;;;;;16.03;8.17;;;-2.60;99.90;;;;;;4143068;28;20318;-62
2022/12/14 09:21:40;;;;;;;14.80;8.63;;;-2.70;99.90;;;;;;4144366;28;20303;-60
2022/12/14 09:23:42;;;;;;;17.30;8.07;;;-2.70;99.90;;;;;;4143382;28;20272;-61
2022/12/14 09:25:43;;;;;;;17.27;8.17;;;-2.70;99.90;;;;;;4146180;28;20275;-62
2022/12/14 09:27:44;;;;;;;24.07;8.97;;;-2.70;99.90;;;;;;4147606;28;20348;-59
2022/12/14 09:29:45;;;;;;;15.70;8.20;;;-2.70;99.90;;;;;;4151851;28;20279;-63
2022/12/14 09:31:47;;;;;;;16.70;8.20;;;-2.70;99.90;;;;;;4157695;28;20761;-64
2022/12/14 09:33:48;;;;;;;21.70;9.30;;;-2.60;99.90;;;;;;4148016;28;20771;-61
2022/12/14 09:35:50;;;;;;;19.67;9.03;;;-2.40;99.90;;;;;;4156889;28;20346;-64
2022/12/14 09:37:51;;;;;;;17.47;8.07;;;-2.40;99.90;;;;;;4145673;28;20326;-60
2022/12/14 09:39:52;;;;;;;15.33;7.93;;;-2.50;99.90;;;;;;4157409;28;21231;-60
2022/12/14 09:42:03;;;;;;;14.63;8.07;;;-2.50;99.90;;;;;;4143689;28;20303;-61
2022/12/14 09:44:12;;;;;;;;;;;-2.40;99.90;;;;;;4147226;28;20833;-62
2022/12/14 09:46:37;;;;;;;19.73;9.63;;;-2.40;99.90;;;;;;4145351;28;19906;-61
2022/12/14 09:48:41;;;;;;;16.97;8.33;;;-2.40;99.90;;;;;;4144524;28;20353;-62
2022/12/14 09:50:46;;;;;;;25.97;10.63;;;-2.40;99.90;;;;;;4143596;28;20744;-61
2022/12/14 09:52:58;;;;;;;20.13;8.77;;;-2.30;99.90;;;;;;4146591;28;20329;-62
2022/12/14 09:55:02;;;;;;;20.30;9.20;;;-2.40;99.90;;;;;;4148509;28;20323;-61
2022/12/14 09:57:09;;;;;;;20.13;8.77;;;-2.40;99.90;;;;;;4159846;28;20278;-59
2022/12/14 09:59:15;;;;;;;19.10;9.00;;;-2.40;99.90;;;;;;4152074;28;20317;-61
2022/12/14 10:01:33;;;;;;;19.33;9.03;;;-2.30;99.90;;;;;;4158882;28;20331;-61
2022/12/14 10:03:55;;;;;;;18.70;9.27;;;-2.30;99.90;;;;;;4161930;28;20267;-59
2022/12/14 10:06:15;;;;;;;16.27;8.50;;;-2.30;99.90;;;;;;4156936;28;20337;-61
2022/12/14 10:08:30;;;;;;;18.80;9.43;;;-2.30;99.90;;;;;;4144406;28;20353;-61
2022/12/14 10:10:38;;;;;;;19.43;9.67;;;-2.20;99.90;;;;;;4146312;28;20275;-61
2022/12/14 10:12:45;;;;;;;21.33;9.47;;;-2.10;99.90;;;;;;4143487;28;20276;-60
2022/12/14 10:15:24;;;;;;;21.43;8.93;;;-2.10;99.90;;;;;;4145965;28;20397;-64
2022/12/14 10:17:49;;;;;;;16.23;8.80;;;-2.00;99.90;;;;;;4145264;28;20672;-62
2022/12/14 10:19:57;;;;;;;22.90;9.77;;;-2.00;99.90;;;;;;4146539;28;20326;-72
2022/12/14 10:22:11;;;;;;;18.93;9.17;;;-1.90;99.90;;;;;;4143645;28;20353;-60
2022/12/14 10:24:39;;;;;;;19.80;9.83;;;-1.90;99.90;;;;;;4145276;28;20267;-61
2022/12/14 10:26:45;;;;;;;22.43;9.87;;;-1.70;99.90;;;;;;4145003;28;20333;-59
2022/12/14 10:29:01;;;;;;;18.67;10.10;;;-1.60;99.90;;;;;;4145634;28;20302;-58
2022/12/14 10:31:08;;;;;;;20.67;9.80;;;-1.40;99.90;;;;;;4145871;28;20952;-63
2022/12/14 10:33:28;;;;;;;18.30;9.13;;;-1.40;99.90;;;;;;4145317;28;20667;-60
2022/12/14 10:35:36;;;;;;;23.27;8.88;;;-1.30;99.90;;;;;;4145559;28;20329;-62
2022/12/14 10:37:42;;;;;;;19.40;9.00;;;-1.30;99.90;;;;;;4144641;28;20479;-62
2022/12/14 10:39:58;;;;;;;19.67;9.80;;;-1.20;99.90;;;;;;4144696;28;20290;-61
2022/12/14 10:42:12;;;;;;;19.03;8.83;;;-1.10;99.90;;;;;;4144390;28;20322;-61
2022/12/14 10:44:22;;;;;;;16.67;9.20;;;-1.00;99.90;;;;;;4145975;28;20806;-62
2022/12/14 10:46:23;;;;;;;17.88;9.60;;;-0.90;99.90;;;;;;4143704;28;20292;-62
2022/12/14 10:48:39;;;;;;;18.97;8.50;;;-0.90;99.90;;;;;;4145513;28;20034;-61
2022/12/14 10:50:58;;;;;;;15.23;8.57;;;-0.80;99.90;;;;;;4145354;28;20263;-62
2022/12/14 10:53:03;;;;;;;15.60;8.80;;;-0.70;99.90;;;;;;4143490;28;20326;-61
2022/12/14 10:55:19;;;;;;;20.40;9.03;;;-0.70;99.90;;;;;;4144939;28;20248;-63